PWSweather.com
Personal Weather Stations
Station Observations
EMMBROOK1
Emmbrook, WokinghamGB

EmmbrookWokinghamGB

Lat: 51.42698, Lon: -0.850575

Elevation: 144

Station Type: WH1081

http://www.wokinghamweather.co.uk

High Low Average
Temperature 63.0°F17.2°F 58.1°F14.5°F 59.9°F15.5°F
Dew Point 59.8°F15.4°F 54.9°F12.7°F 56.9°F13.8°F
Winds 3.7 mph NE6.0 mph NE Calm Calm 1.2 mph 1.9 mph
Wind Gusts 6.9 mph11.1 mph -- 2.4 mph3.9 mph
Humidity 95% 79% 90%
Pressure 30.18 in1022.00 in 30.06 in1017.90 in -
Precipitation 1.68 in42.70 in - -
Hour Temp Dew Point Humidity Winds Wind Gusts Pressure Precip Precip Rate Daily Precip Total
12:00 AM 59.0°F15.0°C 55.5°F13.1°C 88% Calm Calm -- 30.09 in1019.0 mb 0.01 in0.3 mm 0.00 in0.0 mm 0.01 in0.3 mm
12:15 AM 58.8°F14.9°C 55.9°F13.3°C 90% Calm Calm -- 30.08 in1018.6 mb 0.01 in0.3 mm 0.00 in0.0 mm 0.01 in0.3 mm
12:30 AM 58.6°F14.8°C 56.0°F13.3°C 91% 0.7 mph NE1.1 kmh NE 2.2 mph3.5 kmh 30.07 in1018.3 mb 0.01 in0.3 mm 0.00 in0.0 mm 0.01 in0.3 mm
12:45 AM 58.5°F14.7°C 55.9°F13.3°C 91% 0.3 mph NE0.5 kmh NE 1.6 mph2.6 kmh 30.07 in1018.3 mb 0.01 in0.3 mm 0.00 in0.0 mm 0.01 in0.3 mm
01:00 AM 58.3°F14.6°C 55.7°F13.2°C 91% Calm Calm -- 30.07 in1018.3 mb 0.00 in0.0 mm 0.00 in0.0 mm 0.01 in0.3 mm
01:15 AM 58.3°F14.6°C 55.7°F13.2°C 91% Calm Calm -- 30.07 in1018.3 mb 0.00 in0.0 mm 0.00 in0.0 mm 0.01 in0.3 mm
01:30 AM 58.1°F14.5°C 55.8°F13.2°C 92% Calm Calm -- 30.07 in1018.3 mb 0.00 in0.0 mm 0.00 in0.0 mm 0.01 in0.3 mm
01:45 AM 58.1°F14.5°C 55.8°F13.2°C 92% Calm Calm -- 30.07 in1018.3 mb 0.00 in0.0 mm 0.00 in0.0 mm 0.01 in0.3 mm
02:00 AM 58.1°F14.5°C 55.8°F13.2°C 92% 1.1 mph NE1.8 kmh NE 1.6 mph2.6 kmh 30.06 in1017.9 mb 0.00 in0.0 mm 0.00 in0.0 mm 0.01 in0.3 mm
02:15 AM 58.1°F14.5°C 55.8°F13.2°C 92% 0.8 mph NE1.3 kmh NE 1.6 mph2.6 kmh 30.07 in1018.3 mb 0.00 in0.0 mm 0.00 in0.0 mm 0.01 in0.3 mm
02:30 AM 58.1°F14.5°C 55.8°F13.2°C 92% Calm Calm -- 30.06 in1017.9 mb 0.00 in0.0 mm 0.00 in0.0 mm 0.01 in0.3 mm
02:45 AM 58.1°F14.5°C 55.8°F13.2°C 92% Calm Calm -- 30.06 in1017.9 mb 0.01 in0.3 mm 0.04 in1.0 mm 0.02 in0.5 mm
03:00 AM 58.1°F14.5°C 56.1°F13.4°C 93% Calm Calm -- 30.06 in1017.9 mb 0.05 in1.3 mm 0.05 in1.3 mm 0.06 in1.5 mm
03:15 AM 58.1°F14.5°C 56.1°F13.4°C 93% Calm Calm -- 30.06 in1017.9 mb 0.07 in1.8 mm 0.08 in2.0 mm 0.08 in2.0 mm
03:30 AM 58.1°F14.5°C 56.1°F13.4°C 93% Calm Calm -- 30.06 in1017.9 mb 0.13 in3.3 mm 0.24 in6.1 mm 0.14 in3.6 mm
03:45 AM 58.3°F14.6°C 56.3°F13.5°C 93% Calm Calm -- 30.06 in1017.9 mb 0.15 in3.8 mm 0.08 in2.0 mm 0.19 in4.8 mm
04:00 AM 58.3°F14.6°C 56.3°F13.5°C 93% 0.6 mph NE1.0 kmh NE 2.2 mph3.5 kmh 30.07 in1018.3 mb 0.15 in3.8 mm 0.00 in0.0 mm 0.21 in5.3 mm
04:15 AM 58.3°F14.6°C 56.3°F13.5°C 93% Calm Calm 0.7 mph1.1 kmh 30.07 in1018.3 mb 0.15 in3.8 mm 0.00 in0.0 mm 0.24 in6.1 mm
04:30 AM 58.3°F14.6°C 56.3°F13.5°C 93% 0.2 mph NE0.3 kmh NE 0.7 mph1.1 kmh 30.06 in1017.9 mb 0.14 in3.6 mm 0.00 in0.0 mm 0.28 in7.1 mm
04:45 AM 58.1°F14.5°C 56.1°F13.4°C 93% 1.2 mph NE1.9 kmh NE 2.2 mph3.5 kmh 30.07 in1018.3 mb 0.12 in3.0 mm 0.00 in0.0 mm 0.31 in7.9 mm
05:00 AM 58.3°F14.6°C 56.6°F13.7°C 94% 1.6 mph NE2.6 kmh NE 2.2 mph3.5 kmh 30.07 in1018.3 mb 0.11 in2.8 mm 0.00 in0.0 mm 0.32 in8.1 mm
05:15 AM 58.1°F14.5°C 56.4°F13.6°C 94% 1.2 mph NE1.9 kmh NE 3.1 mph5.0 kmh 30.07 in1018.3 mb 0.09 in2.3 mm 0.00 in0.0 mm 0.33 in8.4 mm
05:30 AM 58.1°F14.5°C 56.4°F13.6°C 94% 3.3 mph ENE5.3 kmh ENE 4.5 mph7.2 kmh 30.07 in1018.3 mb 0.07 in1.8 mm 0.00 in0.0 mm 0.35 in8.9 mm
05:45 AM 58.1°F14.5°C 56.4°F13.6°C 94% 1.0 mph ESE1.6 kmh ESE 3.1 mph5.0 kmh 30.07 in1018.3 mb 0.05 in1.3 mm 0.00 in0.0 mm 0.35 in8.9 mm
06:00 AM 58.3°F14.6°C 56.6°F13.7°C 94% 1.0 mph NE1.6 kmh NE 2.2 mph3.5 kmh 30.07 in1018.3 mb 0.05 in1.3 mm 0.00 in0.0 mm 0.37 in9.4 mm
06:15 AM 58.3°F14.6°C 56.6°F13.7°C 94% 2.7 mph NE4.3 kmh NE 4.5 mph7.2 kmh 30.07 in1018.3 mb 0.05 in1.3 mm 0.00 in0.0 mm 0.38 in9.7 mm
06:30 AM 58.3°F14.6°C 56.6°F13.7°C 94% 1.3 mph E2.1 kmh E 3.1 mph5.0 kmh 30.07 in1018.3 mb 0.02 in0.5 mm 0.00 in0.0 mm 0.38 in9.7 mm
06:45 AM 58.5°F14.7°C 56.8°F13.8°C 94% 1.3 mph ENE2.1 kmh ENE 2.2 mph3.5 kmh 30.08 in1018.6 mb 0.02 in0.5 mm 0.00 in0.0 mm 0.38 in9.7 mm
07:00 AM 58.5°F14.7°C 57.0°F13.9°C 95% 1.1 mph NE1.8 kmh NE 3.1 mph5.0 kmh 30.08 in1018.6 mb 0.01 in0.3 mm 0.00 in0.0 mm 0.38 in9.7 mm
07:15 AM 58.6°F14.8°C 57.2°F14.0°C 95% 2.2 mph NE3.5 kmh NE 3.1 mph5.0 kmh 30.08 in1018.6 mb 0.01 in0.3 mm 0.00 in0.0 mm 0.39 in9.9 mm
07:30 AM 58.8°F14.9°C 57.4°F14.1°C 95% 1.1 mph NE1.8 kmh NE 3.1 mph5.0 kmh 30.09 in1019.0 mb 0.04 in1.0 mm 0.12 in3.0 mm 0.41 in10.4 mm
07:45 AM 59.0°F15.0°C 57.3°F14.1°C 94% 1.4 mph NE2.3 kmh NE 1.6 mph2.6 kmh 30.09 in1019.0 mb 0.04 in1.0 mm 0.00 in0.0 mm 0.41 in10.4 mm
08:00 AM 59.0°F15.0°C 57.3°F14.1°C 94% 1.2 mph NE1.9 kmh NE 3.1 mph5.0 kmh 30.09 in1019.0 mb 0.05 in1.3 mm 0.01 in0.3 mm 0.43 in10.9 mm
08:15 AM 59.2°F15.1°C 57.5°F14.2°C 94% 0.5 mph E0.8 kmh E 2.2 mph3.5 kmh 30.09 in1019.0 mb 0.04 in1.0 mm 0.00 in0.0 mm 0.43 in10.9 mm
08:30 AM 59.2°F15.1°C 57.5°F14.2°C 94% 1.2 mph E1.9 kmh E 3.1 mph5.0 kmh 30.09 in1019.0 mb 0.01 in0.3 mm 0.00 in0.0 mm 0.43 in10.9 mm
08:45 AM 59.5°F15.3°C 57.8°F14.3°C 94% 2.5 mph ENE4.0 kmh ENE 3.8 mph6.1 kmh 30.09 in1019.0 mb 0.01 in0.3 mm 0.00 in0.0 mm 0.43 in10.9 mm
09:00 AM 59.5°F15.3°C 57.8°F14.3°C 94% 2.0 mph NE3.2 kmh NE 3.8 mph6.1 kmh 30.09 in1019.0 mb 0.00 in0.0 mm 0.00 in0.0 mm 0.43 in10.9 mm
09:15 AM 59.5°F15.3°C 58.1°F14.5°C 95% 2.1 mph NE3.4 kmh NE 4.5 mph7.2 kmh 30.10 in1019.3 mb 0.00 in0.0 mm 0.00 in0.0 mm 0.43 in10.9 mm
09:30 AM 59.7°F15.4°C 58.3°F14.6°C 95% 0.6 mph E1.0 kmh E 1.6 mph2.6 kmh 30.10 in1019.3 mb 0.00 in0.0 mm 0.00 in0.0 mm 0.43 in10.9 mm
09:45 AM 59.7°F15.4°C 58.3°F14.6°C 95% 2.7 mph NE4.3 kmh NE 4.5 mph7.2 kmh 30.09 in1019.0 mb 0.00 in0.0 mm 0.00 in0.0 mm 0.43 in10.9 mm
10:00 AM 59.9°F15.5°C 58.5°F14.7°C 95% 2.1 mph E3.4 kmh E 5.4 mph8.7 kmh 30.10 in1019.3 mb 0.00 in0.0 mm 0.00 in0.0 mm 0.43 in10.9 mm
10:15 AM 60.1°F15.6°C 58.7°F14.8°C 95% 1.1 mph E1.8 kmh E 3.1 mph5.0 kmh 30.09 in1019.0 mb 0.00 in0.0 mm 0.00 in0.0 mm 0.43 in10.9 mm
10:30 AM 60.3°F15.7°C 58.8°F14.9°C 95% 1.1 mph ENE1.8 kmh ENE 1.6 mph2.6 kmh 30.10 in1019.3 mb 0.00 in0.0 mm 0.00 in0.0 mm 0.43 in10.9 mm
10:45 AM 61.2°F16.2°C 59.4°F15.2°C 94% 1.3 mph NE2.1 kmh NE 3.1 mph5.0 kmh 30.10 in1019.3 mb 0.00 in0.0 mm 0.00 in0.0 mm 0.43 in10.9 mm
11:00 AM 61.2°F16.2°C 59.4°F15.2°C 94% 0.4 mph SW0.6 kmh SW 0.7 mph1.1 kmh 30.10 in1019.3 mb 0.00 in0.0 mm 0.00 in0.0 mm 0.43 in10.9 mm
11:15 AM 61.2°F16.2°C 59.4°F15.2°C 94% 1.5 mph ENE2.4 kmh ENE 3.1 mph5.0 kmh 30.11 in1019.6 mb 0.00 in0.0 mm 0.00 in0.0 mm 0.43 in10.9 mm
11:30 AM 61.3°F16.3°C 59.6°F15.3°C 94% 1.9 mph NE3.1 kmh NE 3.8 mph6.1 kmh 30.10 in1019.3 mb 0.00 in0.0 mm 0.00 in0.0 mm 0.43 in10.9 mm
11:45 AM 61.5°F16.4°C 59.5°F15.3°C 93% 2.9 mph NE4.7 kmh NE 5.4 mph8.7 kmh 30.10 in1019.3 mb 0.00 in0.0 mm 0.00 in0.0 mm 0.43 in10.9 mm
12:00 PM 61.7°F16.5°C 59.7°F15.4°C 93% 3.7 mph NE6.0 kmh NE 5.4 mph8.7 kmh 30.11 in1019.6 mb 0.00 in0.0 mm 0.00 in0.0 mm 0.43 in10.9 mm
12:15 PM 62.1°F16.7°C 59.7°F15.4°C 92% 2.8 mph NE4.5 kmh NE 3.8 mph6.1 kmh 30.11 in1019.6 mb 0.00 in0.0 mm 0.00 in0.0 mm 0.43 in10.9 mm
12:30 PM 62.1°F16.7°C 59.4°F15.2°C 91% 2.3 mph ENE3.7 kmh ENE 4.5 mph7.2 kmh 30.11 in1019.6 mb 0.00 in0.0 mm 0.00 in0.0 mm 0.43 in10.9 mm
12:45 PM 62.4°F16.9°C 59.8°F15.4°C 91% 0.7 mph NE1.1 kmh NE 1.6 mph2.6 kmh 30.11 in1019.6 mb 0.00 in0.0 mm 0.00 in0.0 mm 0.43 in10.9 mm
01:00 PM 62.6°F17.0°C 59.3°F15.2°C 89% 2.5 mph ENE4.0 kmh ENE 3.8 mph6.1 kmh 30.11 in1019.6 mb 0.00 in0.0 mm 0.00 in0.0 mm 0.43 in10.9 mm
01:15 PM 62.6°F17.0°C 59.0°F15.0°C 88% 1.7 mph ENE2.7 kmh ENE 3.1 mph5.0 kmh 30.11 in1019.6 mb 0.00 in0.0 mm 0.00 in0.0 mm 0.43 in10.9 mm
01:30 PM 62.6°F17.0°C 58.4°F14.7°C 86% 3.0 mph NE4.8 kmh NE 4.5 mph7.2 kmh 30.11 in1019.6 mb 0.00 in0.0 mm 0.00 in0.0 mm 0.43 in10.9 mm
01:45 PM 62.8°F17.1°C 58.2°F14.6°C 85% 1.8 mph S2.9 kmh S 2.2 mph3.5 kmh 30.11 in1019.6 mb 0.00 in0.0 mm 0.00 in0.0 mm 0.43 in10.9 mm
02:00 PM 63.0°F17.2°C 57.4°F14.1°C 82% 2.4 mph SE3.9 kmh SE 6.9 mph11.1 kmh 30.11 in1019.6 mb 0.00 in0.0 mm 0.00 in0.0 mm 0.43 in10.9 mm
02:15 PM 62.6°F17.0°C 56.7°F13.7°C 81% 2.4 mph E3.9 kmh E 5.4 mph8.7 kmh 30.11 in1019.6 mb 0.00 in0.0 mm 0.00 in0.0 mm 0.43 in10.9 mm
02:30 PM 62.4°F16.9°C 56.9°F13.8°C 82% 1.8 mph ESE2.9 kmh ESE 3.1 mph5.0 kmh 30.11 in1019.6 mb 0.00 in0.0 mm 0.00 in0.0 mm 0.43 in10.9 mm
02:45 PM 62.4°F16.9°C 56.9°F13.8°C 82% 2.1 mph SE3.4 kmh SE 3.8 mph6.1 kmh 30.11 in1019.6 mb 0.00 in0.0 mm 0.00 in0.0 mm 0.43 in10.9 mm
03:00 PM 62.8°F17.1°C 56.5°F13.6°C 80% 1.6 mph NNE2.6 kmh NNE 3.1 mph5.0 kmh 30.11 in1019.6 mb 0.00 in0.0 mm 0.00 in0.0 mm 0.43 in10.9 mm
03:15 PM 62.6°F17.0°C 56.0°F13.3°C 79% 1.0 mph ENE1.6 kmh ENE 2.2 mph3.5 kmh 30.12 in1020.0 mb 0.00 in0.0 mm 0.00 in0.0 mm 0.43 in10.9 mm
03:30 PM 62.4°F16.9°C 56.9°F13.8°C 82% 1.1 mph NE1.8 kmh NE 1.6 mph2.6 kmh 30.12 in1020.0 mb 0.00 in0.0 mm 0.00 in0.0 mm 0.43 in10.9 mm
03:45 PM 62.2°F16.8°C 56.7°F13.7°C 82% 1.8 mph NE2.9 kmh NE 4.5 mph7.2 kmh 30.13 in1020.3 mb 0.00 in0.0 mm 0.00 in0.0 mm 0.43 in10.9 mm
04:00 PM 62.2°F16.8°C 57.0°F13.9°C 83% 1.1 mph NE1.8 kmh NE 3.8 mph6.1 kmh 30.13 in1020.3 mb 0.00 in0.0 mm 0.00 in0.0 mm 0.43 in10.9 mm
04:15 PM 62.1°F16.7°C 57.2°F14.0°C 84% 0.3 mph SW0.5 kmh SW 1.6 mph2.6 kmh 30.13 in1020.3 mb 0.00 in0.0 mm 0.00 in0.0 mm 0.43 in10.9 mm
04:30 PM 62.1°F16.7°C 57.5°F14.2°C 85% 1.1 mph N1.8 kmh N 2.2 mph3.5 kmh 30.14 in1020.7 mb 0.00 in0.0 mm 0.00 in0.0 mm 0.43 in10.9 mm
04:45 PM 61.7°F16.5°C 57.5°F14.2°C 86% 0.5 mph NE0.8 kmh NE 1.6 mph2.6 kmh 30.13 in1020.3 mb 0.00 in0.0 mm 0.00 in0.0 mm 0.43 in10.9 mm
05:00 PM 61.7°F16.5°C 57.8°F14.3°C 87% 0.8 mph N1.3 kmh N 1.6 mph2.6 kmh 30.14 in1020.7 mb 0.00 in0.0 mm 0.00 in0.0 mm 0.43 in10.9 mm
05:15 PM 61.7°F16.5°C 57.8°F14.3°C 87% 0.2 mph NNW0.3 kmh NNW 0.7 mph1.1 kmh 30.14 in1020.7 mb 0.00 in0.0 mm 0.00 in0.0 mm 0.43 in10.9 mm
05:30 PM 61.5°F16.4°C 57.9°F14.4°C 88% 0.3 mph NE0.5 kmh NE 2.2 mph3.5 kmh 30.14 in1020.7 mb 0.00 in0.0 mm 0.00 in0.0 mm 0.43 in10.9 mm
05:45 PM 61.3°F16.3°C 57.5°F14.2°C 87% 2.5 mph NE4.0 kmh NE 3.8 mph6.1 kmh 30.14 in1020.7 mb 0.00 in0.0 mm 0.00 in0.0 mm 0.43 in10.9 mm
06:00 PM 61.2°F16.2°C 56.3°F13.5°C 84% 1.9 mph NE3.1 kmh NE 3.1 mph5.0 kmh 30.15 in1021.0 mb 0.00 in0.0 mm 0.00 in0.0 mm 0.43 in10.9 mm
06:15 PM 60.1°F15.6°C 54.9°F12.7°C 83% 2.1 mph E3.4 kmh E 3.8 mph6.1 kmh 30.15 in1021.0 mb 0.00 in0.0 mm 0.00 in0.0 mm 0.43 in10.9 mm
06:30 PM 60.1°F15.6°C 54.9°F12.7°C 83% 1.0 mph E1.6 kmh E 3.1 mph5.0 kmh 30.15 in1021.0 mb 0.00 in0.0 mm 0.00 in0.0 mm 0.43 in10.9 mm
06:45 PM 60.1°F15.6°C 55.2°F12.9°C 84% 0.1 mph NE0.2 kmh NE 0.7 mph1.1 kmh 30.15 in1021.0 mb 0.00 in0.0 mm 0.00 in0.0 mm 0.43 in10.9 mm
07:00 PM 59.9°F15.5°C 55.1°F12.8°C 84% 0.5 mph NE0.8 kmh NE 1.6 mph2.6 kmh 30.16 in1021.3 mb 0.00 in0.0 mm 0.00 in0.0 mm 0.43 in10.9 mm
07:15 PM 59.9°F15.5°C 55.4°F13.0°C 85% 1.1 mph E1.8 kmh E 3.1 mph5.0 kmh 30.16 in1021.3 mb 0.00 in0.0 mm 0.00 in0.0 mm 0.43 in10.9 mm
07:30 PM 59.9°F15.5°C 55.7°F13.2°C 86% 0.3 mph NE0.5 kmh NE 0.7 mph1.1 kmh 30.16 in1021.3 mb 0.00 in0.0 mm 0.00 in0.0 mm 0.43 in10.9 mm
07:45 PM 59.7°F15.4°C 55.5°F13.1°C 86% Calm Calm -- 30.17 in1021.7 mb 0.00 in0.0 mm 0.00 in0.0 mm 0.43 in10.9 mm
08:00 PM 59.7°F15.4°C 55.9°F13.3°C 87% 0.2 mph WNW0.3 kmh WNW 0.7 mph1.1 kmh 30.17 in1021.7 mb 0.00 in0.0 mm 0.00 in0.0 mm 0.43 in10.9 mm
08:15 PM 59.7°F15.4°C 55.9°F13.3°C 87% 0.7 mph NE1.1 kmh NE 1.6 mph2.6 kmh 30.17 in1021.7 mb 0.00 in0.0 mm 0.00 in0.0 mm 0.43 in10.9 mm
08:30 PM 59.5°F15.3°C 56.0°F13.3°C 88% 1.0 mph NE1.6 kmh NE 2.2 mph3.5 kmh 30.18 in1022.0 mb 0.00 in0.0 mm 0.00 in0.0 mm 0.43 in10.9 mm
08:45 PM 59.5°F15.3°C 56.3°F13.5°C 89% 0.5 mph NE0.8 kmh NE 1.6 mph2.6 kmh 30.18 in1022.0 mb 0.00 in0.0 mm 0.00 in0.0 mm 0.43 in10.9 mm
09:00 PM 59.5°F15.3°C 56.3°F13.5°C 89% 0.2 mph NE0.3 kmh NE 0.7 mph1.1 kmh 30.18 in1022.0 mb 0.00 in0.0 mm 0.00 in0.0 mm 0.43 in10.9 mm
09:15 PM 59.5°F15.3°C 56.3°F13.5°C 89% 1.8 mph ENE2.9 kmh ENE 3.8 mph6.1 kmh 30.18 in1022.0 mb 0.00 in0.0 mm 0.00 in0.0 mm 0.43 in10.9 mm
09:30 PM 59.5°F15.3°C 56.6°F13.7°C 90% 0.7 mph E1.1 kmh E 3.1 mph5.0 kmh 30.18 in1022.0 mb 0.00 in0.0 mm 0.00 in0.0 mm 0.43 in10.9 mm
09:45 PM 59.5°F15.3°C 56.6°F13.7°C 90% 2.0 mph NE3.2 kmh NE 3.8 mph6.1 kmh 30.18 in1022.0 mb 0.00 in0.0 mm 0.00 in0.0 mm 0.43 in10.9 mm
10:00 PM 59.5°F15.3°C 56.3°F13.5°C 89% 1.9 mph ENE3.1 kmh ENE 3.8 mph6.1 kmh 30.18 in1022.0 mb 0.00 in0.0 mm 0.00 in0.0 mm 0.43 in10.9 mm
10:15 PM 59.5°F15.3°C 56.3°F13.5°C 89% 2.2 mph ENE3.5 kmh ENE 3.8 mph6.1 kmh 30.17 in1021.7 mb 0.00 in0.0 mm 0.00 in0.0 mm 0.43 in10.9 mm
10:30 PM 59.4°F15.2°C 56.1°F13.4°C 89% 1.2 mph ENE1.9 kmh ENE 2.2 mph3.5 kmh 30.17 in1021.7 mb 0.00 in0.0 mm 0.00 in0.0 mm 0.43 in10.9 mm
10:45 PM 59.4°F15.2°C 56.1°F13.4°C 89% 1.0 mph SE1.6 kmh SE 3.1 mph5.0 kmh 30.17 in1021.7 mb 0.00 in0.0 mm 0.00 in0.0 mm 0.43 in10.9 mm
11:00 PM 59.2°F15.1°C 56.3°F13.5°C 90% 1.0 mph E1.6 kmh E 2.2 mph3.5 kmh 30.16 in1021.3 mb 0.00 in0.0 mm 0.00 in0.0 mm 0.20 in5.1 mm
11:15 PM 59.0°F15.0°C 56.1°F13.4°C 90% 1.3 mph ENE2.1 kmh ENE 2.2 mph3.5 kmh 30.17 in1021.7 mb 0.00 in0.0 mm 0.00 in0.0 mm 0.20 in5.1 mm
11:30 PM 59.0°F15.0°C 56.1°F13.4°C 90% 0.9 mph W1.4 kmh W 2.2 mph3.5 kmh 30.17 in1021.7 mb 0.00 in0.0 mm 0.00 in0.0 mm 0.20 in5.1 mm
11:45 PM 59.0°F15.0°C 56.1°F13.4°C 90% 0.1 mph NE0.2 kmh NE 0.7 mph1.1 kmh 30.17 in1021.7 mb 0.00 in0.0 mm 0.00 in0.0 mm 0.20 in5.1 mm